Time;durP1;ratioP1;P1;durP2;ratioP2;P2;SDS_P1;SDS_P2;PMS_P1;PMS_P2;Temp;Humidity;BMP_temperature;BMP_pressure;BME280_temperature;BME280_humidity;BME280_pressure;Samples;Min_cycle;Max_cycle;Signal;HPM_P1;HPM_P2
2021/08/27 00:01:00;;;;;;;6.80;6.10;;;;;;;14.63;83.80;99675.08;93404;1203;80671;-76
2021/08/27 00:03:08;;;;;;;7.90;6.30;;;;;;;14.59;84.06;99677.02;93399;1204;81992;-68
2021/08/27 00:05:18;;;;;;;6.60;5.70;;;;;;;14.58;84.11;99676.96;93407;1200;97340;-68
2021/08/27 00:07:29;;;;;;;7.80;6.10;;;;;;;14.57;84.06;99674.68;93445;1205;86963;-71
2021/08/27 00:09:37;;;;;;;7.20;6.10;;;;;;;14.56;83.96;99677.48;93375;1205;92693;-77
2021/08/27 00:11:44;;;;;;;7.70;5.70;;;;;;;14.51;84.06;99676.10;93406;1204;81521;-75
2021/08/27 00:13:52;;;;;;;7.10;6.10;;;;;;;14.53;84.00;99682.47;93347;1204;80848;-76
2021/08/27 00:15:59;;;;;;;7.40;6.30;;;;;;;14.54;84.02;99684.41;93425;1209;97742;-75
2021/08/27 00:18:10;;;;;;;10.50;6.80;;;;;;;14.51;84.03;99687.80;93408;1204;85513;-68
2021/08/27 00:20:17;;;;;;;7.70;5.90;;;;;;;14.52;84.02;99690.92;93337;1203;93802;-67
2021/08/27 00:22:29;;;;;;;9.10;6.50;;;;;;;14.45;84.05;99695.27;93340;1205;79667;-70
2021/08/27 00:24:36;;;;;;;8.90;6.70;;;;;;;14.45;84.13;99696.59;93351;1204;80904;-74
2021/08/27 00:26:45;;;;;;;8.30;7.20;;;;;;;14.43;84.18;99695.46;93364;1204;98991;-76
2021/08/27 00:28:52;;;;;;;8.90;6.70;;;;;;;14.39;84.24;99699.94;93415;1204;86508;-76
2021/08/27 00:31:00;;;;;;;9.30;7.00;;;;;;;14.35;84.30;99702.39;93387;1205;92922;-75
2021/08/27 00:33:08;;;;;;;8.50;7.40;;;;;;;14.24;84.48;99705.23;93387;1205;80354;-75
2021/08/27 00:35:15;;;;;;;9.80;6.70;;;;;;;14.27;84.52;99702.13;93398;1203;80830;-76
2021/08/27 00:37:24;;;;;;;7.70;6.70;;;;;;;14.31;84.57;99705.42;93397;1203;98434;-75
2021/08/27 00:39:31;;;;;;;8.70;7.10;;;;;;;14.39;84.57;99709.10;93375;1203;87366;-76
2021/08/27 00:41:39;;;;;;;7.90;6.60;;;;;;;14.36;84.54;99713.87;93322;1204;94151;-76
2021/08/27 00:43:47;;;;;;;10.80;7.00;;;;;;;14.42;84.39;99716.38;93364;1205;80238;-68
2021/08/27 00:45:54;;;;;;;7.20;5.50;;;;;;;14.42;84.46;99712.34;93371;1204;81503;-67
2021/08/27 00:48:03;;;;;;;8.30;6.40;;;;;;;14.43;84.38;99714.39;93404;1204;97380;-68
2021/08/27 00:50:12;;;;;;;7.30;6.10;;;;;;;14.50;84.39;99714.34;93413;1203;87556;-69
2021/08/27 00:52:23;;;;;;;8.20;6.40;;;;;;;14.46;84.51;99713.06;93404;1203;94258;-67
2021/08/27 00:54:31;;;;;;;8.60;6.20;;;;;;;14.51;84.49;99715.52;93373;1204;78997;-68
2021/08/27 00:56:39;;;;;;;7.10;6.20;;;;;;;14.54;84.19;99716.86;93355;1200;80528;-69
2021/08/27 00:58:50;;;;;;;7.70;6.30;;;;;;;14.45;84.22;99718.39;93342;1204;97734;-77
2021/08/27 01:01:01;;;;;;;8.30;6.30;;;;;;;14.50;84.12;99718.97;93405;1203;86125;-75
2021/08/27 01:03:09;;;;;;;7.90;6.20;;;;;;;14.53;84.36;99723.03;93387;1203;94554;-68
2021/08/27 01:05:17;;;;;;;8.20;6.80;;;;;;;14.54;84.18;99725.61;93394;1203;80955;-68
2021/08/27 01:07:35;;;;;;;6.50;5.70;;;;;;;14.54;84.10;99726.95;93435;1205;80441;-67
2021/08/27 01:09:53;;;;;;;10.10;6.20;;;;;;;14.47;84.11;99733.36;93365;1204;99515;-68
2021/08/27 01:12:08;;;;;;;7.20;5.60;;;;;;;14.45;84.10;99738.74;93365;1204;86422;-68
2021/08/27 01:14:23;;;;;;;9.70;6.30;;;;;;;14.43;84.34;99738.23;93353;1204;94623;-69
2021/08/27 01:16:36;;;;;;;8.60;5.90;;;;;;;14.41;84.36;99737.75;93340;1204;81879;-69
2021/08/27 01:18:51;;;;;;;7.20;6.10;;;;;;;14.41;84.29;99740.27;93373;1203;82121;-68
2021/08/27 01:21:35;;;;;;;9.60;6.40;;;;;;;14.39;84.25;99745.48;93434;1203;98284;-67
2021/08/27 01:23:46;;;;;;;11.50;6.50;;;;;;;14.45;84.23;99749.88;93334;1204;86919;-76
2021/08/27 01:25:59;;;;;;;8.30;6.70;;;;;;;14.49;84.20;99751.95;93383;1204;93434;-76
2021/08/27 01:28:09;;;;;;;9.20;6.20;;;;;;;14.55;84.13;99755.36;93428;1203;81555;-77
2021/08/27 01:30:24;;;;;;;10.90;6.60;;;;;;;14.48;84.20;99757.51;93396;1205;80462;-76
2021/08/27 01:32:39;;;;;;;8.30;6.60;;;;;;;14.41;84.35;99762.64;93440;1204;98096;-68
2021/08/27 01:34:49;;;;;;;9.70;7.00;;;;;;;14.34;84.54;99760.20;93227;1203;88248;-68
2021/08/27 01:36:58;;;;;;;8.20;6.10;;;;;;;14.41;84.39;99760.16;93381;1204;94205;-67
2021/08/27 01:39:12;;;;;;;7.90;6.60;;;;;;;14.47;84.36;99763.30;93391;1208;80977;-67
2021/08/27 01:41:20;;;;;;;8.40;6.00;;;;;;;14.48;84.29;99764.58;93369;1203;82178;-68
2021/08/27 01:43:30;;;;;;;9.60;6.70;;;;;;;14.50;84.22;99770.09;93363;1205;98112;-76
2021/08/27 01:45:40;;;;;;;7.70;6.30;;;;;;;14.52;84.30;99774.49;93408;1204;87967;-77
2021/08/27 01:47:48;;;;;;;12.10;6.40;;;;;;;14.58;84.23;99777.25;93360;1204;94401;-68
2021/08/27 01:49:56;;;;;;;7.60;6.10;;;;;;;14.63;84.09;99771.95;93407;1203;81288;-68
2021/08/27 01:52:08;;;;;;;7.80;6.40;;;;;;;14.67;83.91;99769.49;93386;1204;81337;-68
2021/08/27 01:54:17;;;;;;;10.60;6.00;;;;;;;14.66;83.94;99767.25;93411;1204;98622;-68
2021/08/27 01:56:26;;;;;;;6.90;6.10;;;;;;;14.64;84.09;99764.31;93376;1204;86479;-68
2021/08/27 01:58:34;;;;;;;7.10;6.40;;;;;;;14.62;84.11;99764.90;93405;1204;94239;-75
2021/08/27 02:00:46;;;;;;;7.60;6.20;;;;;;;14.63;84.18;99766.35;93326;1207;81186;-76
2021/08/27 02:02:54;;;;;;;8.50;6.30;;;;;;;14.66;84.10;99766.55;93382;1203;80524;-68
2021/08/27 02:05:07;;;;;;;8.50;5.50;;;;;;;14.64;84.01;99768.28;93357;1204;98774;-68
2021/08/27 02:07:16;;;;;;;8.60;6.20;;;;;;;14.68;84.11;99770.58;93363;1203;87523;-67
2021/08/27 02:09:25;;;;;;;8.30;6.50;;;;;;;14.72;84.15;99776.54;93343;1204;91837;-68
2021/08/27 02:11:34;;;;;;;6.70;5.90;;;;;;;14.78;84.29;99776.76;93392;1203;80298;-68
2021/08/27 02:13:44;;;;;;;9.20;6.60;;;;;;;14.83;84.11;99781.12;93384;1203;82228;-77
2021/08/27 02:15:52;;;;;;;8.30;6.70;;;;;;;14.83;84.10;99777.01;93358;1204;98534;-74
2021/08/27 02:18:00;;;;;;;6.90;6.20;;;;;;;14.84;84.10;99782.30;93392;1203;87913;-68
2021/08/27 02:20:10;;;;;;;8.50;6.80;;;;;;;14.80;84.33;99779.52;93378;1203;92962;-68
2021/08/27 02:22:21;;;;;;;7.30;6.20;;;;;;;14.84;84.12;99780.70;93408;1204;78863;-68
2021/08/27 02:24:41;;;;;;;9.30;6.70;;;;;;;14.87;83.97;99780.14;93362;1203;81774;-67
2021/08/27 02:26:51;;;;;;;8.60;6.50;;;;;;;14.90;83.80;99780.21;93398;1200;98859;-68
2021/08/27 02:28:59;;;;;;;9.20;6.30;;;;;;;14.93;83.97;99780.70;93433;1203;87886;-67
2021/08/27 02:31:08;;;;;;;8.90;6.40;;;;;;;14.93;84.10;99782.75;93387;1203;94416;-68
2021/08/27 02:33:17;;;;;;;10.80;6.90;;;;;;;14.93;84.06;99784.65;93338;1204;80917;-67
2021/08/27 02:35:26;;;;;;;9.70;6.70;;;;;;;14.90;84.00;99781.47;93387;1204;82022;-68
2021/08/27 02:37:38;;;;;;;10.00;6.00;;;;;;;14.92;83.87;99782.59;93414;1203;98964;-75
2021/08/27 02:39:48;;;;;;;9.10;6.20;;;;;;;14.80;84.27;99781.32;93382;1203;86507;-76
2021/08/27 02:41:58;;;;;;;8.00;6.50;;;;;;;14.77;84.62;99779.94;93407;1204;94589;-75
2021/08/27 02:44:06;;;;;;;12.20;7.40;;;;;;;14.86;84.42;99782.08;93379;1203;81024;-67
2021/08/27 02:46:14;;;;;;;8.70;6.80;;;;;;;14.80;84.63;99780.52;93409;1203;81209;-68
2021/08/27 02:48:21;;;;;;;7.90;6.50;;;;;;;14.83;84.38;99777.69;93328;1203;99929;-68
2021/08/27 02:50:36;;;;;;;9.70;7.10;;;;;;;14.78;84.56;99774.98;93375;1203;86710;-68
2021/08/27 02:52:53;;;;;;;9.50;7.80;;;;;;;14.90;84.27;99773.54;93382;1203;94597;-76
2021/08/27 02:55:07;;;;;;;11.20;7.70;;;;;;;14.94;84.13;99770.70;93390;1204;80465;-76
2021/08/27 02:57:17;;;;;;;9.90;7.60;;;;;;;14.93;84.15;99770.63;93363;1203;82427;-77
2021/08/27 02:59:26;;;;;;;8.20;7.40;;;;;;;14.94;84.05;99770.98;93376;1203;98847;-67
2021/08/27 03:01:40;;;;;;;10.70;8.10;;;;;;;15.00;84.07;99773.65;93359;1203;87444;-67
2021/08/27 03:04:02;;;;;;;8.00;7.00;;;;;;;15.03;84.14;99772.18;93391;1203;94229;-68
2021/08/27 03:06:19;;;;;;;8.30;7.00;;;;;;;15.05;84.23;99767.71;93378;1204;81273;-67
2021/08/27 03:08:30;;;;;;;9.10;7.50;;;;;;;15.06;83.98;99763.44;93187;1198;80955;-77
2021/08/27 03:10:44;;;;;;;9.00;7.50;;;;;;;15.05;83.91;99767.50;93296;1204;100069;-76
2021/08/27 03:12:58;;;;;;;11.30;7.80;;;;;;;15.04;83.98;99764.33;93359;1204;86568;-68
2021/08/27 03:15:12;;;;;;;10.00;8.10;;;;;;;15.11;83.98;99765.31;93394;1203;93794;-68
2021/08/27 03:17:25;;;;;;;16.90;10.80;;;;;;;15.13;83.87;99765.65;93318;1204;82020;-68
2021/08/27 03:19:41;;;;;;;13.20;9.50;;;;;;;15.09;83.70;99764.42;93378;1203;81004;-69
2021/08/27 03:21:56;;;;;;;13.30;9.50;;;;;;;15.03;83.73;99770.77;93379;1203;98491;-68
2021/08/27 03:24:14;;;;;;;14.70;10.00;;;;;;;15.02;83.81;99780.48;93305;1204;88044;-68
2021/08/27 03:26:25;;;;;;;14.70;10.90;;;;;;;15.03;84.11;99782.64;93281;1203;95099;-67
2021/08/27 03:28:40;;;;;;;15.70;9.40;;;;;;;14.98;84.12;99783.59;93344;1203;81223;-68
2021/08/27 03:30:51;;;;;;;12.50;9.40;;;;;;;14.87;84.38;99784.02;93291;1204;81997;-67
2021/08/27 03:33:02;;;;;;;13.50;9.00;;;;;;;14.91;84.24;99787.17;93357;1203;98227;-77
2021/08/27 03:35:14;;;;;;;13.20;9.30;;;;;;;14.96;84.21;99790.88;93388;1204;87377;-76
2021/08/27 03:37:24;;;;;;;12.60;9.30;;;;;;;15.01;84.26;99787.81;93320;1203;94217;-77
2021/08/27 03:39:32;;;;;;;10.50;8.90;;;;;;;15.05;84.10;99787.80;93296;1204;81414;-76
2021/08/27 03:41:43;;;;;;;11.00;9.40;;;;;;;15.06;84.00;99785.60;93321;1203;82418;-76
2021/08/27 03:43:51;;;;;;;11.60;9.10;;;;;;;15.04;84.09;99789.90;93329;1200;101363;-76
2021/08/27 03:46:01;;;;;;;14.40;9.50;;;;;;;15.04;84.18;99790.54;93346;1197;86289;-76
2021/08/27 03:48:10;;;;;;;15.30;10.50;;;;;;;15.03;84.14;99791.13;93296;1204;94602;-67
2021/08/27 03:50:21;;;;;;;15.70;10.40;;;;;;;15.03;84.10;99790.30;93298;1203;81280;-67
2021/08/27 03:52:30;;;;;;;15.00;10.70;;;;;;;15.02;84.03;99793.00;93165;1205;81856;-75
2021/08/27 03:54:39;;;;;;;14.30;9.80;;;;;;;15.06;83.89;99794.77;93264;1203;100325;-76
2021/08/27 03:56:47;;;;;;;12.00;9.70;;;;;;;14.97;84.16;99796.17;93314;1204;87683;-77
2021/08/27 03:58:56;;;;;;;13.60;10.30;;;;;;;14.99;84.23;99795.52;93278;1204;94493;-69
2021/08/27 04:01:04;;;;;;;14.80;11.00;;;;;;;15.01;84.09;99791.78;93300;1204;81258;-68
2021/08/27 04:03:12;;;;;;;13.20;11.30;;;;;;;15.00;83.90;99788.50;93365;1204;80477;-68
2021/08/27 04:05:24;;;;;;;14.20;12.60;;;;;;;14.94;83.91;99788.69;93277;1200;98484;-68
2021/08/27 04:07:32;;;;;;;16.00;10.70;;;;;;;15.00;83.81;99786.23;93393;1203;86461;-68
2021/08/27 04:09:42;;;;;;;15.00;11.80;;;;;;;15.04;83.78;99788.11;93295;1204;92262;-68
2021/08/27 04:11:50;;;;;;;17.10;12.70;;;;;;;15.04;83.71;99782.16;93294;1198;80749;-68
2021/08/27 04:14:00;;;;;;;15.40;12.70;;;;;;;15.00;83.76;99787.99;93378;1195;81169;-75
2021/08/27 04:16:11;;;;;;;15.10;11.60;;;;;;;14.99;83.80;99790.20;93279;1204;97375;-77
2021/08/27 04:18:19;;;;;;;14.20;11.60;;;;;;;15.02;83.85;99790.27;93280;1204;88296;-68
2021/08/27 04:20:27;;;;;;;15.60;12.90;;;;;;;14.96;83.89;99797.52;93298;1203;94826;-68
2021/08/27 04:22:35;;;;;;;17.60;13.80;;;;;;;14.88;84.09;99798.83;93214;1198;79726;-77
2021/08/27 04:24:42;;;;;;;14.10;11.90;;;;;;;14.92;83.96;99799.59;93367;1204;80789;-77
2021/08/27 04:26:50;;;;;;;14.30;12.30;;;;;;;14.96;84.10;99798.70;93268;1203;98400;-77
2021/08/27 04:28:57;;;;;;;17.10;13.50;;;;;;;15.01;84.00;99797.70;93294;1204;88054;-68
2021/08/27 04:31:05;;;;;;;15.10;12.70;;;;;;;14.97;84.11;99799.27;93277;1204;95586;-69
2021/08/27 04:33:13;;;;;;;16.80;13.40;;;;;;;15.02;84.30;99803.16;93292;1204;78024;-68
2021/08/27 04:35:21;;;;;;;17.20;13.80;;;;;;;15.14;84.17;99804.52;93260;1204;81770;-69
2021/08/27 04:37:29;;;;;;;16.40;13.10;;;;;;;15.24;84.10;99810.77;93248;1204;98627;-74
2021/08/27 04:39:36;;;;;;;16.20;13.70;;;;;;;15.30;83.98;99807.73;93359;1203;87638;-77
2021/08/27 04:41:47;;;;;;;15.80;13.60;;;;;;;15.25;84.04;99809.42;93268;1204;94250;-77
2021/08/27 04:43:55;;;;;;;19.00;14.20;;;;;;;15.18;83.98;99804.08;93280;1204;78310;-78
2021/08/27 04:46:03;;;;;;;16.90;14.10;;;;;;;15.16;84.06;99803.37;93357;1203;81634;-77
2021/08/27 04:48:10;;;;;;;18.10;14.60;;;;;;;15.23;83.98;99804.04;93366;1203;97846;-68
2021/08/27 04:50:18;;;;;;;17.60;14.80;;;;;;;15.24;83.95;99807.39;93364;1196;86465;-67
2021/08/27 04:52:28;;;;;;;18.20;14.90;;;;;;;15.34;84.02;99811.19;93298;1204;94307;-71
2021/08/27 04:54:36;;;;;;;19.20;15.50;;;;;;;15.49;84.09;99820.11;93370;1203;78640;-77
2021/08/27 04:56:43;;;;;;;18.90;15.50;;;;;;;15.58;83.89;99823.77;93277;1204;81140;-77
2021/08/27 04:58:51;;;;;;;19.70;15.10;;;;;;;15.54;84.09;99820.25;93372;1197;98629;-68
2021/08/27 05:00:59;;;;;;;18.30;16.30;;;;;;;15.51;84.39;99819.46;93388;1203;87253;-68
2021/08/27 05:03:06;;;;;;;18.70;16.70;;;;;;;15.46;84.44;99817.46;93409;1203;94146;-77
2021/08/27 05:05:15;;;;;;;18.50;16.60;;;;;;;15.56;84.20;99823.08;93347;1203;78528;-77
2021/08/27 05:07:23;;;;;;;20.70;16.10;;;;;;;15.67;83.99;99823.61;93316;1204;81985;-78
2021/08/27 05:09:30;;;;;;;19.60;16.20;;;;;;;15.86;83.54;99827.16;93296;1204;98229;-76
2021/08/27 05:11:38;;;;;;;17.50;15.40;;;;;;;15.97;83.33;99825.62;93314;1204;86584;-77
2021/08/27 05:13:45;;;;;;;16.60;14.90;;;;;;;15.86;83.60;99833.11;93338;1203;94579;-69
2021/08/27 05:15:54;;;;;;;18.40;16.00;;;;;;;15.74;83.87;99839.02;93274;1204;78968;-68
2021/08/27 05:18:04;;;;;;;20.90;17.10;;;;;;;15.49;84.18;99843.84;93378;1202;82650;-67
2021/08/27 05:20:14;;;;;;;19.70;17.40;;;;;;;15.41;84.17;99841.02;93380;1203;99038;-67
2021/08/27 05:22:21;;;;;;;19.10;16.50;;;;;;;15.63;83.81;99841.44;93405;1203;87124;-67
2021/08/27 05:24:29;;;;;;;17.80;15.40;;;;;;;15.85;83.49;99843.60;93346;1203;94550;-68
2021/08/27 05:26:37;;;;;;;112.10;85.90;;;;;;;15.99;83.36;99847.62;93253;1197;81468;-68
2021/08/27 05:28:46;;;;;;;38.10;31.90;;;;;;;15.95;83.64;99848.56;93360;1203;82647;-78
2021/08/27 05:30:57;;;;;;;23.20;20.30;;;;;;;16.01;83.72;99850.72;93379;1203;98045;-78
2021/08/27 05:33:04;;;;;;;23.10;16.20;;;;;;;16.08;83.51;99853.54;93350;1203;86872;-77
2021/08/27 05:35:15;;;;;;;18.60;16.10;;;;;;;16.11;83.30;99857.97;93353;1203;94487;-78
2021/08/27 05:37:23;;;;;;;17.60;15.20;;;;;;;16.06;83.30;99859.66;93386;1203;79896;-78
2021/08/27 05:39:30;;;;;;;18.30;14.20;;;;;;;15.94;83.62;99858.35;93310;1204;80862;-67
2021/08/27 05:41:38;;;;;;;17.30;14.30;;;;;;;15.75;83.74;99858.48;93264;1204;99727;-69
2021/08/27 05:43:45;;;;;;;14.80;13.20;;;;;;;15.66;83.78;99855.13;93371;1203;88239;-67
2021/08/27 05:45:53;;;;;;;16.60;13.30;;;;;;;15.76;83.55;99854.12;93355;1203;94414;-68
2021/08/27 05:48:01;;;;;;;17.30;13.10;;;;;;;15.89;83.26;99857.98;93386;1203;80817;-76
2021/08/27 05:50:12;;;;;;;16.80;14.10;;;;;;;16.01;83.17;99854.80;93411;1203;81642;-77
2021/08/27 05:52:20;;;;;;;15.50;13.50;;;;;;;16.08;83.24;99855.34;93383;1203;98422;-78
2021/08/27 05:54:32;;;;;;;17.60;13.70;;;;;;;16.12;83.25;99854.30;93274;1204;87599;-67
2021/08/27 05:56:42;;;;;;;15.20;13.10;;;;;;;16.12;83.35;99857.83;93352;1203;93962;-68
2021/08/27 05:58:49;;;;;;;17.60;13.90;;;;;;;16.20;83.27;99855.73;93402;1203;81089;-67
2021/08/27 06:00:57;;;;;;;15.20;13.50;;;;;;;16.19;83.45;99864.85;93404;1195;82892;-68
2021/08/27 06:03:08;;;;;;;16.30;13.90;;;;;;;16.05;83.63;99862.17;93409;1203;97649;-68
2021/08/27 06:05:20;;;;;;;21.20;16.50;;;;;;;16.14;83.61;99865.19;93339;1203;87481;-67
2021/08/27 06:07:28;;;;;;;17.20;15.40;;;;;;;16.32;83.33;99865.10;93365;1203;92596;-72
2021/08/27 06:09:36;;;;;;;17.60;15.20;;;;;;;16.42;83.09;99865.41;93367;1203;81589;-68
2021/08/27 06:11:43;;;;;;;17.00;14.20;;;;;;;16.46;83.05;99862.80;93381;1203;80998;-67
2021/08/27 06:13:51;;;;;;;17.90;15.00;;;;;;;16.46;83.21;99864.48;93376;1203;98863;-68
2021/08/27 06:15:59;;;;;;;18.90;16.10;;;;;;;16.41;83.35;99864.54;93285;1204;86516;-68
2021/08/27 06:18:06;;;;;;;18.60;16.20;;;;;;;16.43;83.28;99872.21;93388;1203;92176;-77
2021/08/27 06:20:15;;;;;;;20.70;16.10;;;;;;;16.33;83.36;99869.31;93397;1203;81331;-78
2021/08/27 06:22:24;;;;;;;21.00;16.00;;;;;;;16.37;83.12;99869.95;93400;1195;79414;-77
2021/08/27 06:24:32;;;;;;;19.60;15.40;;;;;;;16.44;82.91;99868.98;93258;1203;98162;-78
2021/08/27 06:26:39;;;;;;;19.30;16.00;;;;;;;16.51;82.89;99871.63;93417;1203;87001;-77
2021/08/27 06:28:50;;;;;;;19.60;16.60;;;;;;;16.35;83.42;99876.78;93363;1200;92702;-77
2021/08/27 06:30:58;;;;;;;19.10;16.80;;;;;;;16.17;83.55;99884.64;93277;1204;79276;-78
2021/08/27 06:33:05;;;;;;;17.50;15.10;;;;;;;16.01;83.70;99888.08;93385;1203;81382;-77
2021/08/27 06:35:14;;;;;;;19.00;14.50;;;;;;;16.12;83.40;99894.51;93408;1203;99010;-77
2021/08/27 06:38:21;;;;;;;15.20;13.70;;;;;;;16.25;83.09;99894.27;93379;1203;88186;-78
2021/08/27 06:39:52;;;;;;;15.30;13.20;;;;;;;16.34;83.09;99898.19;93255;1203;94093;-77
2021/08/27 06:41:59;;;;;;;19.70;14.00;;;;;;;16.43;83.09;99894.98;93374;1203;78187;-78
2021/08/27 06:44:07;;;;;;;15.00;12.60;;;;;;;16.58;82.75;99892.62;93272;1204;80322;-78
2021/08/27 06:46:18;;;;;;;14.80;12.80;;;;;;;16.64;82.71;99893.08;93278;1204;96598;-79
2021/08/27 06:48:25;;;;;;;14.70;13.20;;;;;;;16.70;82.62;99890.26;93379;1200;88219;-78
2021/08/27 06:50:37;;;;;;;14.10;12.60;;;;;;;16.74;82.65;99892.14;93395;1203;93896;-78
2021/08/27 06:52:49;;;;;;;14.60;13.00;;;;;;;16.78;83.08;99889.45;93253;1204;78426;-67
2021/08/27 06:54:56;;;;;;;14.00;12.10;;;;;;;16.84;83.23;99891.46;93249;1204;82071;-67
2021/08/27 06:57:05;;;;;;;12.80;11.50;;;;;;;16.96;82.90;99894.45;93383;1203;97768;-67
2021/08/27 06:59:16;;;;;;;12.80;11.40;;;;;;;17.14;82.76;99891.95;93291;1204;86882;-67
2021/08/27 07:01:23;;;;;;;12.40;11.10;;;;;;;17.47;82.50;99886.17;93261;1204;94325;-68
2021/08/27 07:03:31;;;;;;;14.00;12.60;;;;;;;17.74;82.15;99889.17;93389;1203;80948;-67
2021/08/27 07:05:39;;;;;;;13.60;11.10;;;;;;;17.59;82.57;99895.20;93419;1203;81057;-67
2021/08/27 07:07:47;;;;;;;13.90;12.00;;;;;;;17.65;82.41;99897.65;93303;1204;98383;-79
2021/08/27 07:09:55;;;;;;;13.10;11.70;;;;;;;17.83;81.86;99898.84;93404;1203;87087;-78
2021/08/27 07:12:09;;;;;;;13.80;12.40;;;;;;;17.67;82.02;99902.34;93370;1203;94362;-78
2021/08/27 07:14:17;;;;;;;12.40;11.10;;;;;;;17.71;82.09;99905.23;93437;1199;80655;-77
2021/08/27 07:16:24;;;;;;;13.00;11.50;;;;;;;17.84;81.65;99908.69;93271;1204;82797;-78
2021/08/27 07:18:32;;;;;;;13.70;11.80;;;;;;;18.07;81.13;99908.05;93405;1203;99192;-79
2021/08/27 07:20:39;;;;;;;14.10;11.40;;;;;;;18.27;80.86;99913.52;93406;1203;87276;-76
2021/08/27 07:22:48;;;;;;;12.60;11.40;;;;;;;18.38;81.23;99919.67;93289;1204;94370;-78
2021/08/27 07:24:56;;;;;;;12.00;10.70;;;;;;;18.49;80.98;99915.31;93412;1203;77931;-79
2021/08/27 07:27:04;;;;;;;11.70;10.60;;;;;;;18.64;80.72;99916.85;93403;1203;81679;-79
2021/08/27 07:29:11;;;;;;;12.80;11.50;;;;;;;18.80;80.22;99920.40;93298;1204;98498;-66
2021/08/27 07:31:19;;;;;;;10.80;9.80;;;;;;;18.88;79.75;99923.19;93256;1204;88066;-67
2021/08/27 07:33:29;;;;;;;12.30;10.90;;;;;;;19.01;79.48;99919.02;93413;1203;94122;-75
2021/08/27 07:35:37;;;;;;;12.60;11.30;;;;;;;18.91;79.02;99922.17;93427;1195;78325;-78
2021/08/27 07:37:45;;;;;;;12.40;11.20;;;;;;;18.50;78.89;99924.30;93344;1196;81474;-67
2021/08/27 07:39:56;;;;;;;12.90;11.50;;;;;;;18.56;78.63;99926.33;93271;1204;100205;-65
2021/08/27 07:42:06;;;;;;;12.70;11.30;;;;;;;18.27;79.02;99926.08;93377;1203;88111;-65
2021/08/27 07:44:15;;;;;;;12.40;11.10;;;;;;;18.33;78.67;99927.48;93264;1204;93074;-68
2021/08/27 07:46:23;;;;;;;11.60;10.50;;;;;;;18.29;78.97;99927.84;93404;1203;80928;-64
2021/08/27 07:48:34;;;;;;;11.50;10.30;;;;;;;18.41;78.41;99930.85;93274;1204;82798;-66
2021/08/27 07:50:44;;;;;;;12.40;10.80;;;;;;;18.16;79.02;99930.14;93410;1203;97978;-67
2021/08/27 07:52:52;;;;;;;12.00;10.60;;;;;;;18.09;79.22;99929.83;93428;1203;86329;-65
2021/08/27 07:55:01;;;;;;;12.40;11.00;;;;;;;17.88;79.25;99935.79;93269;1204;93465;-66
2021/08/27 07:57:12;;;;;;;12.20;10.90;;;;;;;17.86;79.57;99933.30;93276;1204;78416;-66
2021/08/27 07:59:20;;;;;;;11.60;10.40;;;;;;;18.04;79.44;99932.55;93265;1202;81808;-78
2021/08/27 08:01:28;;;;;;;10.00;9.00;;;;;;;18.02;79.40;99930.98;93287;1204;98638;-77
2021/08/27 08:03:38;;;;;;;11.40;9.80;;;;;;;18.42;79.06;99927.52;93395;1203;86608;-66
2021/08/27 08:05:46;;;;;;;10.70;9.60;;;;;;;18.82;78.58;99929.02;93415;1203;95315;-66
2021/08/27 08:07:54;;;;;;;10.10;9.10;;;;;;;18.80;78.66;99926.91;93427;1203;78452;-76
2021/08/27 08:10:01;;;;;;;9.70;8.80;;;;;;;18.78;78.51;99930.07;93307;1204;81906;-77
2021/08/27 08:12:10;;;;;;;8.00;7.20;;;;;;;18.78;78.53;99934.67;93437;1203;97516;-76
2021/08/27 08:14:18;;;;;;;8.20;7.40;;;;;;;18.80;78.29;99935.83;93437;1203;86513;-69
2021/08/27 08:16:26;;;;;;;7.60;6.90;;;;;;;18.75;78.39;99939.61;93269;1204;93910;-69
2021/08/27 08:18:35;;;;;;;8.60;7.70;;;;;;;18.65;78.40;99943.68;93411;1203;79875;-75
2021/08/27 08:20:43;;;;;;;7.40;6.40;;;;;;;18.63;78.53;99947.52;93417;1203;82213;-76
2021/08/27 08:22:50;;;;;;;8.20;6.60;;;;;;;18.92;78.32;99953.06;93412;1203;99486;-77
2021/08/27 08:24:58;;;;;;;8.50;7.70;;;;;;;18.98;78.74;99954.02;93418;1203;87898;-78
2021/08/27 08:27:06;;;;;;;8.20;6.90;;;;;;;18.76;78.84;99953.84;93399;1203;94412;-78
2021/08/27 08:29:14;;;;;;;7.50;6.80;;;;;;;18.71;79.01;99958.44;93464;1203;78794;-64
2021/08/27 08:31:25;;;;;;;7.80;6.10;;;;;;;18.65;78.68;99957.64;93430;1203;81476;-65
2021/08/27 08:33:32;;;;;;;6.70;6.10;;;;;;;18.78;78.57;99962.25;93243;1203;99482;-66
2021/08/27 08:35:40;;;;;;;8.10;5.90;;;;;;;19.57;79.56;99955.55;93284;1204;87326;-66
2021/08/27 08:37:48;;;;;;;7.20;6.00;;;;;;;21.08;79.62;99950.59;93417;1203;94393;-77
2021/08/27 08:39:56;;;;;;;6.40;5.60;;;;;;;22.30;78.34;99951.06;93417;1203;80517;-77
2021/08/27 08:42:04;;;;;;;7.50;6.10;;;;;;;22.59;76.33;99952.34;93456;1203;82116;-78
2021/08/27 08:44:12;;;;;;;6.90;6.30;;;;;;;22.26;75.54;99954.85;93330;1203;98091;-66
2021/08/27 08:46:24;;;;;;;7.20;5.40;;;;;;;21.47;75.33;99954.45;93271;1204;87413;-65
2021/08/27 08:48:34;;;;;;;6.00;5.30;;;;;;;21.57;74.57;99949.80;93267;1204;94023;-67
2021/08/27 08:50:42;;;;;;;6.40;5.60;;;;;;;21.68;73.58;99952.39;93436;1203;78359;-67
2021/08/27 08:52:51;;;;;;;6.60;5.90;;;;;;;21.61;73.00;99954.20;93277;1197;82221;-68
2021/08/27 08:54:58;;;;;;;5.90;5.30;;;;;;;21.42;72.52;99956.86;93293;1204;97750;-66
2021/08/27 08:57:07;;;;;;;6.40;5.80;;;;;;;21.18;72.51;99957.27;93289;1204;88545;-65
2021/08/27 08:59:15;;;;;;;6.70;5.30;;;;;;;20.75;72.99;99954.63;93305;1204;94498;-75
2021/08/27 09:01:23;;;;;;;6.10;5.50;;;;;;;20.61;73.17;99951.15;93297;1204;79269;-76
2021/08/27 09:03:34;;;;;;;6.40;5.80;;;;;;;20.24;73.47;99945.41;93298;1197;81717;-75
2021/08/27 09:05:44;;;;;;;7.10;6.40;;;;;;;19.93;73.68;99944.59;93472;1203;98298;-73
2021/08/27 09:07:52;;;;;;;7.30;6.30;;;;;;;19.98;73.82;99946.17;93437;1203;87558;-72
2021/08/27 09:10:05;;;;;;;7.20;5.80;;;;;;;19.92;73.97;99946.98;93262;1204;94624;-73
2021/08/27 09:12:25;;;;;;;6.30;5.70;;;;;;;20.24;75.00;99942.98;93447;1203;79710;-73
2021/08/27 09:14:33;;;;;;;6.20;5.50;;;;;;;21.15;74.20;99940.16;93427;1203;82008;-74
2021/08/27 09:16:41;;;;;;;6.60;5.90;;;;;;;21.40;72.94;99942.39;93435;1203;98539;-73
2021/08/27 09:18:51;;;;;;;6.70;6.00;;;;;;;20.98;72.83;99943.09;93435;1200;87923;-73
2021/08/27 09:21:04;;;;;;;6.90;5.30;;;;;;;20.46;73.06;99943.97;93437;1203;91808;-73
2021/08/27 09:23:14;;;;;;;5.90;5.20;;;;;;;20.52;72.33;99943.24;93304;1204;80056;-73
2021/08/27 09:25:24;;;;;;;6.50;5.70;;;;;;;20.55;72.00;99945.52;93283;1204;81959;-73
2021/08/27 09:27:32;;;;;;;5.90;5.30;;;;;;;20.57;72.04;99947.23;93448;1203;99362;-67
2021/08/27 09:29:42;;;;;;;5.80;5.10;;;;;;;20.63;72.23;99949.02;93292;1204;86736;-66
2021/08/27 09:31:50;;;;;;;5.50;4.90;;;;;;;20.64;71.86;99949.95;93293;1203;94124;-66
2021/08/27 09:34:01;;;;;;;8.80;5.50;;;;;;;20.58;71.23;99949.64;93280;1203;77252;-66
2021/08/27 09:36:12;;;;;;;6.50;5.70;;;;;;;20.40;71.68;99951.34;93255;1196;79794;-66
2021/08/27 09:38:26;;;;;;;7.10;6.40;;;;;;;20.30;71.28;99956.94;93271;1204;98779;-74
2021/08/27 09:40:34;;;;;;;9.10;6.80;;;;;;;20.16;71.50;99959.38;93263;1204;87513;-73
2021/08/27 09:42:45;;;;;;;7.10;6.30;;;;;;;19.86;72.02;99964.27;93245;1203;94483;-75
2021/08/27 09:44:58;;;;;;;6.30;5.70;;;;;;;19.48;72.69;99967.45;93241;1204;80904;-71
2021/08/27 09:47:11;;;;;;;6.00;5.40;;;;;;;19.39;72.51;99968.54;93449;1203;81770;-70
2021/08/27 09:49:31;;;;;;;5.50;5.00;;;;;;;19.13;73.06;99969.37;93262;1203;99215;-75
2021/08/27 09:51:47;;;;;;;4.90;4.30;;;;;;;18.94;73.27;99970.23;93437;1203;87810;-74
2021/08/27 09:53:58;;;;;;;6.20;3.90;;;;;;;18.81;73.22;99974.84;93475;1203;95004;-66
2021/08/27 09:56:06;;;;;;;5.20;4.40;;;;;;;18.65;73.14;99975.16;93279;1204;79385;-67
2021/08/27 09:58:14;;;;;;;4.80;4.30;;;;;;;18.46;73.21;99972.71;93457;1203;82294;-74
2021/08/27 10:00:23;;;;;;;5.30;4.40;;;;;;;18.23;73.10;99974.17;93469;1203;98651;-74
2021/08/27 10:02:35;;;;;;;5.40;4.90;;;;;;;18.20;73.28;99978.98;93311;1204;86268;-73